Brighton, Tennessee
Current Conditions -  °F | °C
As of 2:35 AM on Sunday 23 Nov 2014 (Local Time) from KNQA Reporting Station
Broken Clouds Broken Clouds  
Wind Chill: 59°   Ceiling: 2400
Heat Index: 59°   Visibility: 10mi
Dew Point: 54°   Wind: 7mph
Humidity: 82%   Direction: 130°SE
Pressure: 29.85"   Gusts: NA
Location:  35.48°N, 89.73°W
Report Text: KNQA 230835Z AUTO 13006KT 10SM BKN024 BKN031 15/12 A2985 RMK
Loading
Personal Weather Stations






























Interactive Weather Map New forecast layout! Learn more

10-Day Weather Forecast

Advertisements
Track Severe Weather on mobile